Terminal Aerodrome Forecast
Issued by NWS Northern Indiana

Home | Current Version | Previous Version | Graphics & Text | Print | Product List | Glossary On
Versions: 1 2 3 4 5 6 7 8 9 10 11 12 13 14 15 16
000
FTUS43 KIWX 310536
TAFFWA
TAF
KFWA 310536Z 3106/0106 23004KT P6SM SKC
     FM311600 26012G17KT P6SM SCT080
     FM311900 26014G21KT P6SM BKN080
     FM312300 27008KT P6SM SCT080=

USA.gov is the U.S. government's official web portal to all federal, state and local government web resources and services.